sensor_id;sensor_type;location;lat;lon;timestamp;pressure;altitude;pressure_sealevel;temperature;humidity
63447;BME280;49577;49.872;6.190;2023-04-27T00:00:24;99691.69;;;4.21;71.05
63447;BME280;49577;49.872;6.190;2023-04-27T00:02:49;99690.44;;;4.17;70.87
63447;BME280;49577;49.872;6.190;2023-04-27T00:05:15;99689.95;;;4.11;71.01
63447;BME280;49577;49.872;6.190;2023-04-27T00:07:41;99689.41;;;4.07;71.10
63447;BME280;49577;49.872;6.190;2023-04-27T00:10:07;99690.07;;;4.02;71.30
63447;BME280;49577;49.872;6.190;2023-04-27T00:12:32;99690.03;;;3.98;71.43
63447;BME280;49577;49.872;6.190;2023-04-27T00:14:58;99689.52;;;3.94;71.53
63447;BME280;49577;49.872;6.190;2023-04-27T00:17:23;99689.30;;;3.90;71.68
63447;BME280;49577;49.872;6.190;2023-04-27T00:19:48;99687.30;;;3.88;71.67
63447;BME280;49577;49.872;6.190;2023-04-27T00:22:14;99691.04;;;3.85;71.79
63447;BME280;49577;49.872;6.190;2023-04-27T00:24:40;99692.34;;;3.82;71.86
63447;BME280;49577;49.872;6.190;2023-04-27T00:27:06;99692.71;;;3.81;72.01
63447;BME280;49577;49.872;6.190;2023-04-27T00:29:31;99693.88;;;3.82;72.18
63447;BME280;49577;49.872;6.190;2023-04-27T00:31:57;99691.73;;;3.85;72.22
63447;BME280;49577;49.872;6.190;2023-04-27T00:34:22;99686.88;;;3.85;72.36
63447;BME280;49577;49.872;6.190;2023-04-27T00:36:47;99688.52;;;3.87;72.47
63447;BME280;49577;49.872;6.190;2023-04-27T00:39:12;99689.32;;;3.89;72.57
63447;BME280;49577;49.872;6.190;2023-04-27T00:41:38;99686.81;;;3.92;72.48
63447;BME280;49577;49.872;6.190;2023-04-27T00:44:03;99686.81;;;3.92;72.48
63447;BME280;49577;49.872;6.190;2023-04-27T00:46:29;99683.73;;;3.91;72.58
63447;BME280;49577;49.872;6.190;2023-04-27T00:48:55;99681.95;;;3.92;72.71
63447;BME280;49577;49.872;6.190;2023-04-27T00:51:21;99676.71;;;3.94;72.58
63447;BME280;49577;49.872;6.190;2023-04-27T00:53:47;99675.94;;;3.96;72.61
63447;BME280;49577;49.872;6.190;2023-04-27T00:56:13;99674.20;;;3.97;72.61
63447;BME280;49577;49.872;6.190;2023-04-27T00:58:38;99673.31;;;3.98;72.60
63447;BME280;49577;49.872;6.190;2023-04-27T01:01:03;99673.05;;;4.00;72.76
63447;BME280;49577;49.872;6.190;2023-04-27T01:03:29;99674.36;;;4.02;72.72
63447;BME280;49577;49.872;6.190;2023-04-27T01:05:55;99670.84;;;4.04;72.84
63447;BME280;49577;49.872;6.190;2023-04-27T01:08:21;99674.92;;;4.05;72.77
63447;BME280;49577;49.872;6.190;2023-04-27T01:10:46;99674.17;;;4.08;72.72
63447;BME280;49577;49.872;6.190;2023-04-27T01:13:13;99676.92;;;4.08;72.69
63447;BME280;49577;49.872;6.190;2023-04-27T01:15:39;99676.65;;;4.11;72.68
63447;BME280;49577;49.872;6.190;2023-04-27T01:18:05;99680.89;;;4.13;72.62
63447;BME280;49577;49.872;6.190;2023-04-27T01:20:30;99683.56;;;4.16;72.69
63447;BME280;49577;49.872;6.190;2023-04-27T01:22:56;99681.10;;;4.17;72.62
63447;BME280;49577;49.872;6.190;2023-04-27T01:25:22;99683.70;;;4.16;72.57
63447;BME280;49577;49.872;6.190;2023-04-27T01:27:48;99686.48;;;4.16;72.54
63447;BME280;49577;49.872;6.190;2023-04-27T01:30:13;99688.34;;;4.17;72.68
63447;BME280;49577;49.872;6.190;2023-04-27T01:32:39;99686.69;;;4.20;72.64
63447;BME280;49577;49.872;6.190;2023-04-27T01:35:05;99687.80;;;4.23;72.54
63447;BME280;49577;49.872;6.190;2023-04-27T01:37:31;99684.30;;;4.24;72.49
63447;BME280;49577;49.872;6.190;2023-04-27T01:39:56;99683.42;;;4.25;72.44
63447;BME280;49577;49.872;6.190;2023-04-27T01:42:22;99681.48;;;4.25;72.50
63447;BME280;49577;49.872;6.190;2023-04-27T01:44:47;99683.48;;;4.27;72.45
63447;BME280;49577;49.872;6.190;2023-04-27T01:47:14;99679.83;;;4.27;72.16
63447;BME280;49577;49.872;6.190;2023-04-27T01:49:40;99683.38;;;4.25;72.23
63447;BME280;49577;49.872;6.190;2023-04-27T01:52:06;99684.95;;;4.25;72.32
63447;BME280;49577;49.872;6.190;2023-04-27T01:54:31;99687.55;;;4.25;72.19
63447;BME280;49577;49.872;6.190;2023-04-27T01:56:56;99684.36;;;4.22;72.22
63447;BME280;49577;49.872;6.190;2023-04-27T01:59:22;99684.45;;;4.20;72.15
63447;BME280;49577;49.872;6.190;2023-04-27T02:01:48;99683.61;;;4.19;72.05
63447;BME280;49577;49.872;6.190;2023-04-27T02:04:13;99682.38;;;4.19;72.20
63447;BME280;49577;49.872;6.190;2023-04-27T02:06:38;99683.38;;;4.21;72.17
63447;BME280;49577;49.872;6.190;2023-04-27T02:09:05;99677.77;;;4.22;72.21
63447;BME280;49577;49.872;6.190;2023-04-27T02:11:30;99670.56;;;4.22;72.22
63447;BME280;49577;49.872;6.190;2023-04-27T02:13:56;99673.23;;;4.20;72.40
63447;BME280;49577;49.872;6.190;2023-04-27T02:16:21;99667.69;;;4.19;72.65
63447;BME280;49577;49.872;6.190;2023-04-27T02:18:46;99672.05;;;4.18;72.69
63447;BME280;49577;49.872;6.190;2023-04-27T02:21:13;99675.36;;;4.17;72.80
63447;BME280;49577;49.872;6.190;2023-04-27T02:23:38;99678.93;;;4.14;72.68
63447;BME280;49577;49.872;6.190;2023-04-27T02:26:03;99676.27;;;4.12;72.84
63447;BME280;49577;49.872;6.190;2023-04-27T02:28:29;99681.16;;;4.10;73.12
63447;BME280;49577;49.872;6.190;2023-04-27T02:30:55;99681.36;;;4.10;73.26
63447;BME280;49577;49.872;6.190;2023-04-27T02:33:20;99682.11;;;4.08;73.54
63447;BME280;49577;49.872;6.190;2023-04-27T02:35:45;99684.74;;;4.07;73.52
63447;BME280;49577;49.872;6.190;2023-04-27T02:38:11;99692.72;;;4.06;73.68
63447;BME280;49577;49.872;6.190;2023-04-27T02:40:37;99690.84;;;4.05;73.63
63447;BME280;49577;49.872;6.190;2023-04-27T02:43:03;99685.20;;;4.03;73.68
63447;BME280;49577;49.872;6.190;2023-04-27T02:45:28;99684.53;;;4.03;73.82
63447;BME280;49577;49.872;6.190;2023-04-27T02:47:53;99687.33;;;4.02;73.93
63447;BME280;49577;49.872;6.190;2023-04-27T02:50:19;99685.00;;;3.99;74.00
63447;BME280;49577;49.872;6.190;2023-04-27T02:52:44;99684.77;;;3.96;73.93
63447;BME280;49577;49.872;6.190;2023-04-27T02:55:09;99680.81;;;3.91;73.88
63447;BME280;49577;49.872;6.190;2023-04-27T02:57:35;99685.65;;;3.86;73.97
63447;BME280;49577;49.872;6.190;2023-04-27T03:00:01;99682.58;;;3.79;74.16
63447;BME280;49577;49.872;6.190;2023-04-27T03:02:26;99680.00;;;3.73;74.34
63447;BME280;49577;49.872;6.190;2023-04-27T03:04:52;99678.77;;;3.69;74.56
63447;BME280;49577;49.872;6.190;2023-04-27T03:07:19;99677.56;;;3.64;74.53
63447;BME280;49577;49.872;6.190;2023-04-27T03:09:45;99676.52;;;3.54;74.47
63447;BME280;49577;49.872;6.190;2023-04-27T03:12:10;99677.73;;;3.43;74.50
63447;BME280;49577;49.872;6.190;2023-04-27T03:14:35;99676.06;;;3.30;74.66
63447;BME280;49577;49.872;6.190;2023-04-27T03:17:01;99670.59;;;3.17;74.70
63447;BME280;49577;49.872;6.190;2023-04-27T03:19:27;99671.11;;;3.06;74.94
63447;BME280;49577;49.872;6.190;2023-04-27T03:21:52;99670.73;;;2.97;74.99
63447;BME280;49577;49.872;6.190;2023-04-27T03:24:18;99670.91;;;2.85;75.36
63447;BME280;49577;49.872;6.190;2023-04-27T03:26:43;99672.51;;;2.77;75.72
63447;BME280;49577;49.872;6.190;2023-04-27T03:29:08;99673.49;;;2.73;75.91
63447;BME280;49577;49.872;6.190;2023-04-27T03:31:34;99670.84;;;2.70;76.08
63447;BME280;49577;49.872;6.190;2023-04-27T03:33:59;99670.58;;;2.67;75.94
63447;BME280;49577;49.872;6.190;2023-04-27T03:36:24;99677.45;;;2.62;75.97
63447;BME280;49577;49.872;6.190;2023-04-27T03:38:51;99677.55;;;2.59;75.96
63447;BME280;49577;49.872;6.190;2023-04-27T03:41:16;99674.75;;;2.55;76.10
63447;BME280;49577;49.872;6.190;2023-04-27T03:43:41;99677.70;;;2.47;75.82
63447;BME280;49577;49.872;6.190;2023-04-27T03:46:07;99675.17;;;2.40;75.96
63447;BME280;49577;49.872;6.190;2023-04-27T03:48:32;99678.81;;;2.33;75.91
63447;BME280;49577;49.872;6.190;2023-04-27T03:50:59;99678.17;;;2.24;76.07
63447;BME280;49577;49.872;6.190;2023-04-27T03:53:25;99679.56;;;2.18;76.22
63447;BME280;49577;49.872;6.190;2023-04-27T03:55:50;99680.09;;;2.11;76.32
63447;BME280;49577;49.872;6.190;2023-04-27T03:58:16;99679.42;;;2.04;76.44
63447;BME280;49577;49.872;6.190;2023-04-27T04:00:42;99680.96;;;1.98;76.62
63447;BME280;49577;49.872;6.190;2023-04-27T04:03:07;99683.46;;;2.00;77.39
63447;BME280;49577;49.872;6.190;2023-04-27T04:05:32;99682.46;;;2.07;77.48
63447;BME280;49577;49.872;6.190;2023-04-27T04:07:58;99679.69;;;2.07;77.08
63447;BME280;49577;49.872;6.190;2023-04-27T04:10:24;99684.58;;;2.11;77.20
63447;BME280;49577;49.872;6.190;2023-04-27T04:12:50;99686.31;;;2.17;77.07
63447;BME280;49577;49.872;6.190;2023-04-27T04:15:16;99688.77;;;2.21;77.06
63447;BME280;49577;49.872;6.190;2023-04-27T04:17:41;99690.41;;;2.25;76.72
63447;BME280;49577;49.872;6.190;2023-04-27T04:20:07;99691.48;;;2.23;76.45
63447;BME280;49577;49.872;6.190;2023-04-27T04:22:36;99692.76;;;2.21;76.38
63447;BME280;49577;49.872;6.190;2023-04-27T04:25:02;99691.21;;;2.20;76.52
63447;BME280;49577;49.872;6.190;2023-04-27T04:27:28;99691.23;;;2.20;76.45
63447;BME280;49577;49.872;6.190;2023-04-27T04:29:54;99691.40;;;2.13;76.09
63447;BME280;49577;49.872;6.190;2023-04-27T04:32:19;99696.40;;;2.07;76.15
63447;BME280;49577;49.872;6.190;2023-04-27T04:34:50;99699.33;;;2.00;76.15
63447;BME280;49577;49.872;6.190;2023-04-27T04:37:15;99700.02;;;1.94;76.28
63447;BME280;49577;49.872;6.190;2023-04-27T04:39:43;99703.19;;;1.91;76.52
63447;BME280;49577;49.872;6.190;2023-04-27T04:42:08;99704.48;;;1.89;76.62
63447;BME280;49577;49.872;6.190;2023-04-27T04:44:33;99710.31;;;1.89;76.82
63447;BME280;49577;49.872;6.190;2023-04-27T04:46:59;99708.36;;;1.91;76.84
63447;BME280;49577;49.872;6.190;2023-04-27T04:49:24;99706.45;;;1.92;76.76
63447;BME280;49577;49.872;6.190;2023-04-27T04:51:50;99709.50;;;1.94;76.68
63447;BME280;49577;49.872;6.190;2023-04-27T04:54:15;99710.64;;;1.96;76.60
63447;BME280;49577;49.872;6.190;2023-04-27T04:56:40;99708.12;;;2.00;76.54
63447;BME280;49577;49.872;6.190;2023-04-27T04:59:06;99712.63;;;2.05;76.58
63447;BME280;49577;49.872;6.190;2023-04-27T05:01:32;99715.91;;;2.12;76.26
63447;BME280;49577;49.872;6.190;2023-04-27T05:03:57;99715.18;;;2.20;76.24
63447;BME280;49577;49.872;6.190;2023-04-27T05:06:23;99715.86;;;2.39;76.20
63447;BME280;49577;49.872;6.190;2023-04-27T05:08:48;99719.11;;;2.70;75.94
63447;BME280;49577;49.872;6.190;2023-04-27T05:11:13;99721.80;;;3.02;75.25
63447;BME280;49577;49.872;6.190;2023-04-27T05:13:38;99726.38;;;3.39;74.79
63447;BME280;49577;49.872;6.190;2023-04-27T05:16:04;99723.23;;;3.83;73.82
63447;BME280;49577;49.872;6.190;2023-04-27T05:18:30;99722.16;;;4.34;72.58
63447;BME280;49577;49.872;6.190;2023-04-27T05:20:55;99727.19;;;4.91;71.37
63447;BME280;49577;49.872;6.190;2023-04-27T05:23:21;99730.84;;;5.44;70.07
63447;BME280;49577;49.872;6.190;2023-04-27T05:25:46;99728.58;;;6.04;68.89
63447;BME280;49577;49.872;6.190;2023-04-27T05:28:11;99727.14;;;6.69;67.07
63447;BME280;49577;49.872;6.190;2023-04-27T05:30:37;99731.34;;;7.29;65.60
63447;BME280;49577;49.872;6.190;2023-04-27T05:33:03;99731.34;;;7.75;63.97
63447;BME280;49577;49.872;6.190;2023-04-27T05:35:32;99729.55;;;8.26;62.62
63447;BME280;49577;49.872;6.190;2023-04-27T05:37:57;99730.17;;;8.81;61.11
63447;BME280;49577;49.872;6.190;2023-04-27T05:40:23;99728.48;;;9.40;59.82
63447;BME280;49577;49.872;6.190;2023-04-27T05:42:49;99729.38;;;10.07;58.47
63447;BME280;49577;49.872;6.190;2023-04-27T05:45:14;99726.41;;;10.66;56.48
63447;BME280;49577;49.872;6.190;2023-04-27T05:47:40;99722.52;;;11.03;55.54
63447;BME280;49577;49.872;6.190;2023-04-27T05:50:06;99722.39;;;11.49;54.13
63447;BME280;49577;49.872;6.190;2023-04-27T05:52:31;99726.98;;;11.84;52.21
63447;BME280;49577;49.872;6.190;2023-04-27T05:54:57;99726.06;;;12.18;51.71
63447;BME280;49577;49.872;6.190;2023-04-27T05:57:23;99732.23;;;12.59;49.97
63447;BME280;49577;49.872;6.190;2023-04-27T05:59:48;99730.50;;;13.08;49.04
63447;BME280;49577;49.872;6.190;2023-04-27T06:02:13;99725.77;;;13.48;47.57
63447;BME280;49577;49.872;6.190;2023-04-27T06:04:39;99725.42;;;13.72;46.50
63447;BME280;49577;49.872;6.190;2023-04-27T06:07:11;99727.18;;;14.02;45.87
63447;BME280;49577;49.872;6.190;2023-04-27T06:09:37;99730.30;;;14.05;44.99
63447;BME280;49577;49.872;6.190;2023-04-27T06:12:03;99731.05;;;14.02;44.47
63447;BME280;49577;49.872;6.190;2023-04-27T06:14:30;99730.83;;;13.91;44.49
63447;BME280;49577;49.872;6.190;2023-04-27T06:16:55;99730.55;;;13.95;44.68
63447;BME280;49577;49.872;6.190;2023-04-27T06:19:21;99729.66;;;14.28;44.53
63447;BME280;49577;49.872;6.190;2023-04-27T06:21:46;99727.30;;;14.42;44.24
63447;BME280;49577;49.872;6.190;2023-04-27T06:24:11;99727.54;;;14.60;43.84
63447;BME280;49577;49.872;6.190;2023-04-27T06:26:36;99728.85;;;14.79;43.03
63447;BME280;49577;49.872;6.190;2023-04-27T06:29:02;99729.81;;;15.25;42.73
63447;BME280;49577;49.872;6.190;2023-04-27T06:31:28;99727.30;;;15.80;42.30
63447;BME280;49577;49.872;6.190;2023-04-27T06:33:54;99724.03;;;16.28;41.13
63447;BME280;49577;49.872;6.190;2023-04-27T06:36:19;99724.45;;;16.37;41.20
63447;BME280;49577;49.872;6.190;2023-04-27T06:38:45;99725.10;;;16.57;40.91
63447;BME280;49577;49.872;6.190;2023-04-27T06:41:10;99721.10;;;16.79;40.49
63447;BME280;49577;49.872;6.190;2023-04-27T06:43:37;99729.63;;;16.90;40.12
63447;BME280;49577;49.872;6.190;2023-04-27T06:46:03;99725.81;;;17.01;39.64
63447;BME280;49577;49.872;6.190;2023-04-27T06:48:28;99725.82;;;17.35;38.51
63447;BME280;49577;49.872;6.190;2023-04-27T06:50:53;99729.48;;;17.54;37.80
63447;BME280;49577;49.872;6.190;2023-04-27T06:53:19;99729.94;;;17.78;37.25
63447;BME280;49577;49.872;6.190;2023-04-27T06:55:44;99725.60;;;18.31;36.58
63447;BME280;49577;49.872;6.190;2023-04-27T06:58:10;99726.41;;;18.94;35.43
63447;BME280;49577;49.872;6.190;2023-04-27T07:00:35;99723.21;;;19.27;34.16
63447;BME280;49577;49.872;6.190;2023-04-27T07:03:01;99723.13;;;19.50;33.77
63447;BME280;49577;49.872;6.190;2023-04-27T07:05:26;99717.94;;;19.67;32.91
63447;BME280;49577;49.872;6.190;2023-04-27T07:07:51;99710.85;;;19.59;32.43
63447;BME280;49577;49.872;6.190;2023-04-27T07:10:17;99712.26;;;19.76;32.48
63447;BME280;49577;49.872;6.190;2023-04-27T07:12:42;99711.80;;;20.02;32.21
63447;BME280;49577;49.872;6.190;2023-04-27T07:15:08;99708.68;;;19.83;31.82
63447;BME280;49577;49.872;6.190;2023-04-27T07:17:34;99711.62;;;19.96;31.25
63447;BME280;49577;49.872;6.190;2023-04-27T07:20:03;99715.84;;;20.25;31.67
63447;BME280;49577;49.872;6.190;2023-04-27T07:22:30;99715.98;;;20.55;31.77
63447;BME280;49577;49.872;6.190;2023-04-27T07:24:55;99720.08;;;20.52;31.46
63447;BME280;49577;49.872;6.190;2023-04-27T07:27:20;99723.17;;;20.10;31.44
63447;BME280;49577;49.872;6.190;2023-04-27T07:29:46;99725.01;;;19.61;31.61
63447;BME280;49577;49.872;6.190;2023-04-27T07:32:12;99723.45;;;19.41;32.49
63447;BME280;49577;49.872;6.190;2023-04-27T07:34:37;99727.19;;;19.48;31.76
63447;BME280;49577;49.872;6.190;2023-04-27T07:37:03;99723.77;;;19.38;31.60
63447;BME280;49577;49.872;6.190;2023-04-27T07:39:29;99720.89;;;19.45;31.66
63447;BME280;49577;49.872;6.190;2023-04-27T07:41:54;99721.11;;;19.56;31.08
63447;BME280;49577;49.872;6.190;2023-04-27T07:44:20;99716.94;;;19.84;30.59
63447;BME280;49577;49.872;6.190;2023-04-27T07:46:46;99710.02;;;20.26;30.58
63447;BME280;49577;49.872;6.190;2023-04-27T07:49:13;99706.75;;;20.53;29.76
63447;BME280;49577;49.872;6.190;2023-04-27T07:51:39;99704.74;;;20.80;28.90
63447;BME280;49577;49.872;6.190;2023-04-27T07:54:04;99702.73;;;21.07;28.60
63447;BME280;49577;49.872;6.190;2023-04-27T07:56:30;99699.21;;;21.12;28.22
63447;BME280;49577;49.872;6.190;2023-04-27T07:58:56;99693.14;;;21.38;27.48
63447;BME280;49577;49.872;6.190;2023-04-27T08:01:21;99693.58;;;21.95;27.34
63447;BME280;49577;49.872;6.190;2023-04-27T08:03:47;99690.90;;;22.47;26.81
63447;BME280;49577;49.872;6.190;2023-04-27T08:06:12;99692.74;;;22.54;26.38
63447;BME280;49577;49.872;6.190;2023-04-27T08:08:37;99690.33;;;23.03;25.87
63447;BME280;49577;49.872;6.190;2023-04-27T08:11:03;99689.52;;;23.36;25.12
63447;BME280;49577;49.872;6.190;2023-04-27T08:13:28;99691.61;;;23.15;25.17
63447;BME280;49577;49.872;6.190;2023-04-27T08:15:53;99691.27;;;22.86;25.11
63447;BME280;49577;49.872;6.190;2023-04-27T08:18:24;99688.38;;;22.74;24.64
63447;BME280;49577;49.872;6.190;2023-04-27T08:20:49;99682.66;;;22.60;24.90
63447;BME280;49577;49.872;6.190;2023-04-27T08:23:15;99682.95;;;22.59;25.35
63447;BME280;49577;49.872;6.190;2023-04-27T08:25:40;99684.16;;;22.86;25.52
63447;BME280;49577;49.872;6.190;2023-04-27T08:28:06;99681.33;;;22.99;24.89
63447;BME280;49577;49.872;6.190;2023-04-27T08:30:31;99680.99;;;23.30;25.03
63447;BME280;49577;49.872;6.190;2023-04-27T08:32:56;99684.41;;;23.67;24.32
63447;BME280;49577;49.872;6.190;2023-04-27T08:35:22;99685.96;;;24.09;23.98
63447;BME280;49577;49.872;6.190;2023-04-27T08:37:47;99676.20;;;24.39;23.80
63447;BME280;49577;49.872;6.190;2023-04-27T08:40:12;99677.13;;;24.63;23.58
63447;BME280;49577;49.872;6.190;2023-04-27T08:42:41;99673.08;;;24.84;23.30
63447;BME280;49577;49.872;6.190;2023-04-27T08:45:17;99667.94;;;25.12;23.01
63447;BME280;49577;49.872;6.190;2023-04-27T08:47:43;99668.81;;;25.32;22.91
63447;BME280;49577;49.872;6.190;2023-04-27T08:50:08;99669.20;;;25.67;22.77
63447;BME280;49577;49.872;6.190;2023-04-27T08:52:36;99667.50;;;25.66;21.73
63447;BME280;49577;49.872;6.190;2023-04-27T08:55:01;99668.23;;;25.31;21.98
63447;BME280;49577;49.872;6.190;2023-04-27T08:57:27;99666.34;;;25.21;22.15
63447;BME280;49577;49.872;6.190;2023-04-27T08:59:58;99665.27;;;25.36;22.47
63447;BME280;49577;49.872;6.190;2023-04-27T09:02:36;99664.69;;;25.65;22.03
63447;BME280;49577;49.872;6.190;2023-04-27T09:05:02;99666.73;;;25.98;21.85
63447;BME280;49577;49.872;6.190;2023-04-27T09:07:28;99666.65;;;26.27;21.51
63447;BME280;49577;49.872;6.190;2023-04-27T09:10:01;99664.77;;;26.43;21.36
63447;BME280;49577;49.872;6.190;2023-04-27T09:12:27;99667.49;;;26.65;20.84
63447;BME280;49577;49.872;6.190;2023-04-27T09:14:57;99659.89;;;27.00;20.86
63447;BME280;49577;49.872;6.190;2023-04-27T09:17:26;99659.70;;;27.26;20.46
63447;BME280;49577;49.872;6.190;2023-04-27T09:20:03;99664.70;;;27.25;20.34
63447;BME280;49577;49.872;6.190;2023-04-27T09:22:41;99661.14;;;27.23;20.06
63447;BME280;49577;49.872;6.190;2023-04-27T09:25:07;99659.59;;;27.08;20.04
63447;BME280;49577;49.872;6.190;2023-04-27T09:27:32;99657.48;;;26.81;20.33
63447;BME280;49577;49.872;6.190;2023-04-27T09:29:57;99660.31;;;26.67;20.33
63447;BME280;49577;49.872;6.190;2023-04-27T09:32:22;99661.42;;;26.24;20.23
63447;BME280;49577;49.872;6.190;2023-04-27T09:34:48;99660.09;;;26.15;20.74
63447;BME280;49577;49.872;6.190;2023-04-27T09:37:14;99657.16;;;26.28;20.58
63447;BME280;49577;49.872;6.190;2023-04-27T09:39:41;99658.50;;;26.19;20.52
63447;BME280;49577;49.872;6.190;2023-04-27T09:42:06;99657.67;;;26.00;20.44
63447;BME280;49577;49.872;6.190;2023-04-27T09:44:32;99658.10;;;26.08;20.82
63447;BME280;49577;49.872;6.190;2023-04-27T09:46:59;99653.88;;;26.19;20.74
63447;BME280;49577;49.872;6.190;2023-04-27T09:49:26;99657.36;;;25.92;20.79
63447;BME280;49577;49.872;6.190;2023-04-27T09:51:54;99654.09;;;25.90;20.89
63447;BME280;49577;49.872;6.190;2023-04-27T09:54:24;99655.46;;;25.99;20.59
63447;BME280;49577;49.872;6.190;2023-04-27T09:59:34;99651.70;;;25.76;21.13
63447;BME280;49577;49.872;6.190;2023-04-27T10:02:04;99649.03;;;25.95;20.80
63447;BME280;49577;49.872;6.190;2023-04-27T10:04:38;99641.73;;;25.94;21.09
63447;BME280;49577;49.872;6.190;2023-04-27T10:07:09;99640.71;;;25.61;21.18
63447;BME280;49577;49.872;6.190;2023-04-27T10:09:40;99637.52;;;25.30;21.49
63447;BME280;49577;49.872;6.190;2023-04-27T10:12:25;99636.16;;;25.06;21.63
63447;BME280;49577;49.872;6.190;2023-04-27T10:14:55;99635.56;;;25.31;21.94
63447;BME280;49577;49.872;6.190;2023-04-27T10:19:55;99630.81;;;25.53;21.56
63447;BME280;49577;49.872;6.190;2023-04-27T10:22:21;99628.55;;;25.81;21.35
63447;BME280;49577;49.872;6.190;2023-04-27T10:24:50;99625.09;;;25.90;21.27
63447;BME280;49577;49.872;6.190;2023-04-27T10:27:18;99615.85;;;25.87;21.39
63447;BME280;49577;49.872;6.190;2023-04-27T10:29:45;99616.85;;;25.56;21.74
63447;BME280;49577;49.872;6.190;2023-04-27T10:32:24;99614.20;;;25.10;21.94
63447;BME280;49577;49.872;6.190;2023-04-27T10:34:51;99607.10;;;24.86;21.96
63447;BME280;49577;49.872;6.190;2023-04-27T10:37:17;99606.31;;;24.72;22.24
63447;BME280;49577;49.872;6.190;2023-04-27T10:39:44;99601.48;;;25.20;22.19
63447;BME280;49577;49.872;6.190;2023-04-27T10:42:10;99596.48;;;25.55;21.78
63447;BME280;49577;49.872;6.190;2023-04-27T10:44:37;99597.48;;;25.81;21.29
63447;BME280;49577;49.872;6.190;2023-04-27T10:47:16;99593.41;;;25.83;21.44
63447;BME280;49577;49.872;6.190;2023-04-27T10:49:44;99595.14;;;25.88;21.45
63447;BME280;49577;49.872;6.190;2023-04-27T10:52:09;99586.81;;;26.23;21.49
63447;BME280;49577;49.872;6.190;2023-04-27T10:54:35;99586.90;;;26.70;21.42
63447;BME280;49577;49.872;6.190;2023-04-27T10:59:28;99586.79;;;26.53;20.82
63447;BME280;49577;49.872;6.190;2023-04-27T11:01:53;99584.02;;;26.41;20.76
63447;BME280;49577;49.872;6.190;2023-04-27T11:04:19;99586.23;;;26.39;20.80
63447;BME280;49577;49.872;6.190;2023-04-27T11:06:44;99585.27;;;26.55;20.91
63447;BME280;49577;49.872;6.190;2023-04-27T11:09:11;99579.88;;;26.58;20.75
63447;BME280;49577;49.872;6.190;2023-04-27T11:11:37;99578.85;;;26.41;20.94
63447;BME280;49577;49.872;6.190;2023-04-27T11:14:02;99579.40;;;26.13;21.14
63447;BME280;49577;49.872;6.190;2023-04-27T11:16:28;99576.98;;;25.97;21.17
63447;BME280;49577;49.872;6.190;2023-04-27T11:18:54;99575.66;;;25.79;21.28
63447;BME280;49577;49.872;6.190;2023-04-27T11:21:19;99572.79;;;25.42;21.54
63447;BME280;49577;49.872;6.190;2023-04-27T11:23:46;99572.80;;;25.39;21.84
63447;BME280;49577;49.872;6.190;2023-04-27T11:26:17;99569.98;;;25.48;21.95
63447;BME280;49577;49.872;6.190;2023-04-27T11:31:42;99560.31;;;25.56;21.67
63447;BME280;49577;49.872;6.190;2023-04-27T11:34:21;99553.23;;;25.17;21.57
63447;BME280;49577;49.872;6.190;2023-04-27T11:37:01;99557.75;;;24.94;22.33
63447;BME280;49577;49.872;6.190;2023-04-27T11:39:28;99554.96;;;24.59;22.58
63447;BME280;49577;49.872;6.190;2023-04-27T11:41:56;99551.92;;;24.39;22.57
63447;BME280;49577;49.872;6.190;2023-04-27T11:44:25;99546.81;;;24.34;22.71
63447;BME280;49577;49.872;6.190;2023-04-27T11:46:51;99544.79;;;24.31;22.63
63447;BME280;49577;49.872;6.190;2023-04-27T11:49:17;99536.67;;;24.06;22.82
63447;BME280;49577;49.872;6.190;2023-04-27T11:51:44;99537.19;;;23.81;23.21
63447;BME280;49577;49.872;6.190;2023-04-27T11:54:10;99536.77;;;23.59;23.76
63447;BME280;49577;49.872;6.190;2023-04-27T11:56:39;99533.63;;;23.44;23.97
63447;BME280;49577;49.872;6.190;2023-04-27T11:59:16;99537.43;;;23.26;23.97
63447;BME280;49577;49.872;6.190;2023-04-27T12:01:42;99533.15;;;22.91;24.54
63447;BME280;49577;49.872;6.190;2023-04-27T12:04:07;99533.32;;;22.61;24.84
63447;BME280;49577;49.872;6.190;2023-04-27T12:06:32;99536.12;;;22.43;24.99
63447;BME280;49577;49.872;6.190;2023-04-27T12:08:57;99533.78;;;22.48;25.04
63447;BME280;49577;49.872;6.190;2023-04-27T12:11:26;99529.48;;;22.55;25.55
63447;BME280;49577;49.872;6.190;2023-04-27T12:13:53;99524.33;;;22.53;25.48
63447;BME280;49577;49.872;6.190;2023-04-27T12:16:19;99524.81;;;22.54;26.10
63447;BME280;49577;49.872;6.190;2023-04-27T12:18:47;99528.14;;;22.51;25.94
63447;BME280;49577;49.872;6.190;2023-04-27T12:21:12;99528.19;;;22.39;25.89
63447;BME280;49577;49.872;6.190;2023-04-27T12:23:38;99527.36;;;22.39;25.96
63447;BME280;49577;49.872;6.190;2023-04-27T12:26:03;99525.78;;;22.40;25.77
63447;BME280;49577;49.872;6.190;2023-04-27T12:28:29;99527.72;;;22.48;25.66
63447;BME280;49577;49.872;6.190;2023-04-27T12:30:54;99526.13;;;22.58;25.47
63447;BME280;49577;49.872;6.190;2023-04-27T12:33:20;99523.61;;;22.65;25.84
63447;BME280;49577;49.872;6.190;2023-04-27T12:35:45;99518.02;;;22.80;25.64
63447;BME280;49577;49.872;6.190;2023-04-27T12:38:11;99515.64;;;22.71;26.49
63447;BME280;49577;49.872;6.190;2023-04-27T12:40:36;99515.70;;;22.55;26.77
63447;BME280;49577;49.872;6.190;2023-04-27T12:43:02;99514.60;;;22.26;26.14
63447;BME280;49577;49.872;6.190;2023-04-27T12:45:27;99516.30;;;21.99;26.51
63447;BME280;49577;49.872;6.190;2023-04-27T12:47:52;99521.45;;;21.85;26.55
63447;BME280;49577;49.872;6.190;2023-04-27T12:50:19;99523.10;;;21.81;26.76
63447;BME280;49577;49.872;6.190;2023-04-27T12:52:44;99522.02;;;21.98;27.28
63447;BME280;49577;49.872;6.190;2023-04-27T12:55:11;99518.54;;;22.04;26.84
63447;BME280;49577;49.872;6.190;2023-04-27T12:57:36;99524.08;;;21.85;26.83
63447;BME280;49577;49.872;6.190;2023-04-27T13:00:02;99526.45;;;21.69;26.90
63447;BME280;49577;49.872;6.190;2023-04-27T13:02:28;99525.63;;;21.78;27.20
63447;BME280;49577;49.872;6.190;2023-04-27T13:04:54;99525.67;;;21.98;26.86
63447;BME280;49577;49.872;6.190;2023-04-27T13:07:19;99522.56;;;22.01;27.28
63447;BME280;49577;49.872;6.190;2023-04-27T13:09:45;99523.23;;;22.19;27.30